Sniezka, Poland
Current Conditions -  °F | °C
As of 3:00 PM on Monday 24 Nov 2014 (Local Time) from LKPD Reporting Station
Overcast Overcast  
Wind Chill: 40°   Ceiling: 2300
Heat Index: 43°   Visibility: 5mi
Dew Point: 36°   Wind: 5mph
Humidity: 76%   Direction: 180°S
Pressure: 30.24"   Gusts: NA
Location:  50.77°N, 15.75°E
Report Text: LKPD 241300Z 18004KT 8000 BKN023 OVC110 06/02 Q1024 NOSIG
Loading
Personal Weather Stations






























Interactive Weather Map New forecast layout! Learn more

10-Day Weather Forecast

Advertisements
Track Severe Weather on mobile